createdAt,value
2022-10-01T00:01:37.348Z,96946.78
2022-10-01T00:03:40.713Z,96945.13
2022-10-01T00:05:43.292Z,96952.06
2022-10-01T00:07:46.226Z,96945.38
2022-10-01T00:09:48.861Z,96959.38
2022-10-01T00:11:53.386Z,96955.91
2022-10-01T00:13:56.017Z,96966.25
2022-10-01T00:16:00.375Z,96966.31
2022-10-01T00:18:03.143Z,96969.91
2022-10-01T00:20:14.046Z,96970.75
2022-10-01T00:22:18.943Z,96962.81
2022-10-01T00:24:21.522Z,96961.97
2022-10-01T00:26:27.234Z,96951.81
2022-10-01T00:28:29.905Z,96948.34
2022-10-01T00:30:32.635Z,96950.16
2022-10-01T00:32:41.100Z,96944.09
2022-10-01T00:34:43.705Z,96940.84
2022-10-01T00:36:46.329Z,96941.69
2022-10-01T00:38:49.226Z,96933.09
2022-10-01T00:40:53.419Z,96941.81
2022-10-01T00:42:55.985Z,96934.97
2022-10-01T00:45:02.236Z,96938.44
2022-10-01T00:47:17.008Z,96927.09
2022-10-01T00:49:24.265Z,96940.09
2022-10-01T00:51:29.583Z,96937.50
2022-10-01T00:53:32.303Z,96935.03
2022-10-01T00:55:37.409Z,96936.78
2022-10-01T00:57:41.794Z,96940.19
2022-10-01T00:59:45.656Z,96939.66
2022-10-01T01:01:48.740Z,96942.38
2022-10-01T01:03:51.520Z,96940.66
2022-10-01T01:05:55.431Z,96935.53
2022-10-01T01:07:58.338Z,96932.06
2022-10-01T01:10:02.359Z,96932.06
2022-10-01T01:12:15.520Z,96931.22
2022-10-01T01:14:26.162Z,96932.25
2022-10-01T01:16:35.912Z,96934.84
2022-10-01T01:18:44.772Z,96929.88
2022-10-01T01:21:09.284Z,96935.16
2022-10-01T01:23:27.140Z,96942.28
2022-10-01T01:25:36.915Z,96941.56
2022-10-01T01:27:44.599Z,96941.69
2022-10-01T01:29:55.302Z,96936.59
2022-10-01T01:32:02.979Z,96934.06
2022-10-01T01:34:12.189Z,96931.41
2022-10-01T01:36:19.669Z,96931.41
2022-10-01T01:38:27.980Z,96922.13
2022-10-01T01:40:34.441Z,96925.53
2022-10-01T01:42:41.084Z,96929.19
2022-10-01T01:44:47.584Z,96919.69
2022-10-01T01:46:55.107Z,96914.44
2022-10-01T01:48:57.814Z,96911.59
2022-10-01T01:51:11.031Z,96902.38
2022-10-01T01:53:15.135Z,96890.41
2022-10-01T01:55:19.093Z,96892.97
2022-10-01T01:57:22.353Z,96892.84
2022-10-01T01:59:25.784Z,96890.41
2022-10-01T02:01:35.831Z,96889.66
2022-10-01T02:03:39.949Z,96883.63
2022-10-01T02:05:52.399Z,96882.56
2022-10-01T02:08:17.649Z,96872.31
2022-10-01T02:10:34.612Z,96876.66
2022-10-01T02:12:52.961Z,96865.31
2022-10-01T02:15:01.955Z,96869.66
2022-10-01T02:17:16.528Z,96869.66
2022-10-01T02:19:26.894Z,96863.63
2022-10-01T02:21:35.273Z,96862.88
2022-10-01T02:23:43.429Z,96860.22
2022-10-01T02:25:49.353Z,96865.22
2022-10-01T02:27:59.106Z,96873.16
2022-10-01T02:30:08.336Z,96865.31
2022-10-01T02:32:12.915Z,96861.03
2022-10-01T02:34:20.424Z,96860.22
2022-10-01T02:36:26.996Z,96854.09
2022-10-01T02:38:30.355Z,96849.63
2022-10-01T02:40:37.671Z,96849.63
2022-10-01T02:42:42.409Z,96844.41
2022-10-01T02:44:47.785Z,96846.97
2022-10-01T02:46:55.641Z,96844.41
2022-10-01T02:48:59.552Z,96852.22
2022-10-01T02:51:07.443Z,96863.50
2022-10-01T02:53:17.819Z,96853.81
2022-10-01T02:55:25.974Z,96855.38
2022-10-01T02:57:28.674Z,96851.16
2022-10-01T02:59:31.232Z,96842.41
2022-10-01T03:01:34.270Z,96843.28
2022-10-01T03:03:37.018Z,96841.41
2022-10-01T03:05:39.565Z,96844.78
2022-10-01T03:07:43.689Z,96847.34
2022-10-01T03:09:47.643Z,96842.78
2022-10-01T03:11:50.263Z,96848.78
2022-10-01T03:13:53.703Z,96848.91
2022-10-01T03:15:56.263Z,96842.72
2022-10-01T03:17:58.924Z,96845.31
2022-10-01T03:20:01.773Z,96842.59
2022-10-01T03:22:04.529Z,96845.09
2022-10-01T03:24:07.476Z,96847.63
2022-10-01T03:26:11.459Z,96846.66
2022-10-01T03:28:14.084Z,96851.75
2022-10-01T03:30:16.791Z,96857.78
2022-10-01T03:32:20.187Z,96852.50
2022-10-01T03:34:23.471Z,96843.88
2022-10-01T03:36:26.409Z,96854.22
2022-10-01T03:38:29.259Z,96845.56
2022-10-01T03:40:33.352Z,96836.81
2022-10-01T03:42:39.441Z,96834.28
2022-10-01T03:44:42.016Z,96830.94
2022-10-01T03:46:44.969Z,96839.56
2022-10-01T03:48:47.560Z,96830.13
2022-10-01T03:50:57.413Z,96826.69
2022-10-01T03:53:00.116Z,96834.47
2022-10-01T03:55:02.705Z,96824.00
2022-10-01T03:57:06.088Z,96824.94
2022-10-01T03:59:10.940Z,96829.22
2022-10-01T04:01:13.603Z,96820.53
2022-10-01T04:03:17.156Z,96816.19
2022-10-01T04:05:19.719Z,96820.53
2022-10-01T04:07:22.319Z,96806.72
2022-10-01T04:09:24.925Z,96810.13
2022-10-01T04:11:28.001Z,96814.38
2022-10-01T04:13:31.253Z,96813.66
2022-10-01T04:15:35.376Z,96816.19
2022-10-01T04:17:40.676Z,96824.13
2022-10-01T04:19:45.219Z,96819.06
2022-10-01T04:21:47.979Z,96808.59
2022-10-01T04:23:50.858Z,96805.91
2022-10-01T04:25:53.549Z,96805.00
2022-10-01T04:27:58.740Z,96804.94
2022-10-01T04:30:01.336Z,96802.22
2022-10-01T04:32:05.360Z,96799.56
2022-10-01T04:34:07.947Z,96798.63
2022-10-01T04:36:10.527Z,96795.97
2022-10-01T04:38:14.881Z,96799.03
2022-10-01T04:40:17.634Z,96801.78
2022-10-01T04:42:20.635Z,96792.19
2022-10-01T04:44:23.217Z,96786.09
2022-10-01T04:46:26.258Z,96788.56
2022-10-01T04:48:30.246Z,96791.94
2022-10-01T04:50:33.584Z,96788.41
2022-10-01T04:52:36.175Z,96800.47
2022-10-01T04:54:38.868Z,96799.41
2022-10-01T04:56:41.470Z,96795.25
2022-10-01T04:58:44.047Z,96792.50
2022-10-01T05:00:46.824Z,96796.63
2022-10-01T05:02:50.898Z,96785.00
2022-10-01T05:04:56.032Z,96789.91
2022-10-01T05:06:58.640Z,96792.78
2022-10-01T05:09:01.573Z,96796.38
2022-10-01T05:11:04.205Z,96789.81
2022-10-01T05:13:06.857Z,96792.59
2022-10-01T05:15:10.503Z,96790.81
2022-10-01T05:17:13.071Z,96790.75
2022-10-01T05:19:15.732Z,96784.31
2022-10-01T05:21:19.671Z,96774.78
2022-10-01T05:23:22.264Z,96779.94
2022-10-01T05:25:24.933Z,96778.53
2022-10-01T05:27:27.620Z,96775.06
2022-10-01T05:29:30.581Z,96777.81
2022-10-01T05:31:34.632Z,96778.78
2022-10-01T05:33:37.907Z,96788.66
2022-10-01T05:35:42.161Z,96781.50
2022-10-01T05:37:46.092Z,96785.81
2022-10-01T05:39:49.238Z,96780.06
2022-10-01T05:41:51.797Z,96775.28
2022-10-01T05:43:54.429Z,96774.78
2022-10-01T05:46:00.408Z,96778.16
2022-10-01T05:48:05.561Z,96777.66
2022-10-01T05:50:09.389Z,96781.19
2022-10-01T05:52:12.558Z,96781.25
2022-10-01T05:54:19.644Z,96778.06
2022-10-01T05:56:22.226Z,96764.63
2022-10-01T05:58:27.422Z,96770.31
2022-10-01T06:00:31.176Z,96756.72
2022-10-01T06:02:33.811Z,96754.13
2022-10-01T06:04:40.895Z,96769.09
2022-10-01T06:06:43.912Z,96756.38
2022-10-01T06:08:46.837Z,96752.13
2022-10-01T06:10:51.667Z,96754.69
2022-10-01T06:13:00.330Z,96745.59
2022-10-01T06:15:02.882Z,96749.31
2022-10-01T06:17:05.485Z,96741.25
2022-10-01T06:19:08.095Z,96742.63
2022-10-01T06:21:11.083Z,96731.88
2022-10-01T06:23:14.720Z,96735.66
2022-10-01T06:25:17.473Z,96728.03
2022-10-01T06:27:21.390Z,96749.91
2022-10-01T06:29:24.202Z,96724.34
2022-10-01T06:31:26.850Z,96717.97
2022-10-01T06:33:30.189Z,96714.75
2022-10-01T06:35:33.550Z,96722.97
2022-10-01T06:37:38.271Z,96717.97
2022-10-01T06:39:40.848Z,96710.44
2022-10-01T06:41:43.457Z,96710.13
2022-10-01T06:43:49.703Z,96714.44
2022-10-01T06:45:53.055Z,96704.16
2022-10-01T06:47:56.390Z,96697.25
2022-10-01T06:49:59.754Z,96701.22
2022-10-01T06:52:20.495Z,96702.00
2022-10-01T06:54:23.065Z,96704.84
2022-10-01T06:56:25.735Z,96694.31
2022-10-01T06:58:28.300Z,96694.78
2022-10-01T07:00:34.684Z,96699.03
2022-10-01T07:02:37.460Z,96698.69
2022-10-01T07:04:41.234Z,96694.94
2022-10-01T07:06:43.804Z,96703.19
2022-10-01T07:08:50.313Z,96710.44
2022-10-01T07:10:52.923Z,96715.91
2022-10-01T07:12:55.513Z,96715.66
2022-10-01T07:14:58.071Z,96718.16
2022-10-01T07:17:02.023Z,96719.34
2022-10-01T07:19:04.623Z,96722.13
2022-10-01T07:21:07.157Z,96710.59
2022-10-01T07:23:12.600Z,96710.56
2022-10-01T07:25:15.996Z,96706.91
2022-10-01T07:27:19.078Z,96726.41
2022-10-01T07:29:21.659Z,96728.50
2022-10-01T07:31:24.458Z,96725.44
2022-10-01T07:33:28.501Z,96731.53
2022-10-01T07:35:31.181Z,96727.56
2022-10-01T07:37:33.745Z,96725.56
2022-10-01T07:39:36.409Z,96720.25
2022-10-01T07:41:39.223Z,96713.38
2022-10-01T07:43:43.732Z,96728.94
2022-10-01T07:45:47.020Z,96723.28
2022-10-01T07:47:56.899Z,96730.59
2022-10-01T07:50:00.828Z,96722.97
2022-10-01T07:52:03.457Z,96713.00
2022-10-01T07:54:06.803Z,96714.63
2022-10-01T07:56:09.367Z,96707.91
2022-10-01T07:58:12.847Z,96718.09
2022-10-01T08:00:15.819Z,96727.44
2022-10-01T08:02:19.025Z,96721.91
2022-10-01T08:04:40.189Z,96717.28
2022-10-01T08:06:44.127Z,96719.13
2022-10-01T08:08:47.058Z,96713.66
2022-10-01T08:10:50.909Z,96719.13
2022-10-01T08:12:53.536Z,96718.59
2022-10-01T08:14:56.107Z,96724.81
2022-10-01T08:16:59.066Z,96731.13
2022-10-01T08:19:01.683Z,96724.25
2022-10-01T08:21:05.066Z,96718.75
2022-10-01T08:23:11.396Z,96713.44
2022-10-01T08:25:14.042Z,96709.44
2022-10-01T08:27:16.649Z,96720.16
2022-10-01T08:29:19.552Z,96715.44
2022-10-01T08:31:22.199Z,96717.84
2022-10-01T08:33:24.911Z,96720.84
2022-10-01T08:35:29.102Z,96727.31
2022-10-01T08:37:31.693Z,96718.31
2022-10-01T08:39:36.645Z,96713.94
2022-10-01T08:41:51.738Z,96721.06
2022-10-01T08:43:54.793Z,96728.31
2022-10-01T08:46:00.946Z,96735.81
2022-10-01T08:48:09.170Z,96732.03
2022-10-01T08:50:17.556Z,96732.97
2022-10-01T08:52:24.228Z,96731.13
2022-10-01T08:54:35.152Z,96734.03
2022-10-01T08:56:44.492Z,96731.13
2022-10-01T08:58:51.018Z,96721.91
2022-10-01T09:00:53.696Z,96732.28
2022-10-01T09:03:01.280Z,96735.28
2022-10-01T09:05:06.820Z,96727.66
2022-10-01T09:07:20.318Z,96735.69
2022-10-01T09:09:39.631Z,96739.72
2022-10-01T09:12:05.496Z,96742.06
2022-10-01T09:14:24.948Z,96743.34
2022-10-01T09:16:36.325Z,96732.66
2022-10-01T09:18:50.090Z,96742.06
2022-10-01T09:20:55.843Z,96749.06
2022-10-01T09:23:14.811Z,96748.41
2022-10-01T09:25:22.961Z,96750.78
2022-10-01T09:27:29.141Z,96762.31
2022-10-01T09:29:42.754Z,96734.06
2022-10-01T09:31:50.508Z,96739.28
2022-10-01T09:33:59.034Z,96743.34
2022-10-01T09:36:12.422Z,96737.03
2022-10-01T09:38:22.034Z,96746.88
2022-10-01T09:40:34.077Z,96735.91
2022-10-01T09:42:38.028Z,96746.19
2022-10-01T09:44:40.646Z,96758.19
2022-10-01T09:46:46.056Z,96754.94
2022-10-01T09:48:57.871Z,96750.34
2022-10-01T09:51:02.963Z,96764.41
2022-10-01T09:53:06.893Z,96764.63
2022-10-01T09:55:23.719Z,96765.00
2022-10-01T09:57:31.481Z,96782.56
2022-10-01T09:59:41.254Z,96776.66
2022-10-01T10:01:47.762Z,96774.41
2022-10-01T10:03:58.268Z,96771.84
2022-10-01T10:06:01.848Z,96791.00
2022-10-01T10:08:12.059Z,96775.25
2022-10-01T10:10:25.261Z,96773.66
2022-10-01T10:12:30.821Z,96771.00
2022-10-01T10:14:37.296Z,96779.19
2022-10-01T10:16:47.262Z,96772.88
2022-10-01T10:18:52.277Z,96776.75
2022-10-01T10:20:56.551Z,96781.28
2022-10-01T10:23:10.319Z,96788.44
2022-10-01T10:25:20.947Z,96777.22
2022-10-01T10:27:27.447Z,96789.69
2022-10-01T10:29:31.865Z,96794.28
2022-10-01T10:31:42.134Z,96803.09
2022-10-01T10:33:54.082Z,96815.13
2022-10-01T10:36:01.260Z,96822.41
2022-10-01T10:38:04.006Z,96822.41
2022-10-01T10:40:08.948Z,96815.75
2022-10-01T10:42:15.637Z,96816.59
2022-10-01T10:44:21.371Z,96812.84
2022-10-01T10:46:29.576Z,96813.28
2022-10-01T10:48:40.505Z,96813.81
2022-10-01T10:50:45.855Z,96827.28
2022-10-01T10:52:48.513Z,96812.44
2022-10-01T10:54:52.188Z,96815.38
2022-10-01T10:57:00.687Z,96809.44
2022-10-01T10:59:09.011Z,96812.50
2022-10-01T11:01:16.352Z,96808.75
2022-10-01T11:03:23.409Z,96808.81
2022-10-01T11:05:31.728Z,96811.63
2022-10-01T11:07:35.031Z,96806.06
2022-10-01T11:10:02.912Z,96800.16
2022-10-01T11:12:18.095Z,96794.88
2022-10-01T11:14:32.180Z,96777.22
2022-10-01T11:17:10.835Z,96785.19
2022-10-01T11:19:28.738Z,96785.44
2022-10-01T11:21:49.815Z,96786.28
2022-10-01T11:24:14.205Z,96777.56
2022-10-01T11:26:26.191Z,96775.06
2022-10-01T11:28:40.784Z,96778.06
2022-10-01T11:30:56.126Z,96782.75
2022-10-01T11:33:11.817Z,96769.94
2022-10-01T11:35:28.364Z,96775.91
2022-10-01T11:37:47.576Z,96791.53
2022-10-01T11:39:54.375Z,96785.69
2022-10-01T11:42:03.283Z,96770.53
2022-10-01T11:44:15.570Z,96775.16
2022-10-01T11:46:29.754Z,96771.81
2022-10-01T11:48:38.332Z,96781.25
2022-10-01T11:50:48.286Z,96790.88
2022-10-01T11:52:58.526Z,96786.41
2022-10-01T11:55:31.981Z,96785.91
2022-10-01T11:57:52.351Z,96788.63
2022-10-01T12:00:00.929Z,96788.63
2022-10-01T12:02:15.037Z,96784.16
2022-10-01T12:04:32.811Z,96800.63
2022-10-01T12:06:41.884Z,96782.91
2022-10-01T12:08:53.124Z,96779.16
2022-10-01T12:11:01.497Z,96790.97
2022-10-01T12:13:09.717Z,96788.88
2022-10-01T12:15:18.778Z,96794.03
2022-10-01T12:17:27.203Z,96793.59
2022-10-01T12:19:32.803Z,96797.22
2022-10-01T12:21:40.848Z,96790.56
2022-10-01T12:23:52.398Z,96799.94
2022-10-01T12:26:02.054Z,96792.78
2022-10-01T12:28:11.447Z,96802.28
2022-10-01T12:30:17.399Z,96788.28
2022-10-01T12:32:31.540Z,96795.44
2022-10-01T12:34:53.291Z,96800.44
2022-10-01T12:37:10.279Z,96810.25
2022-10-01T12:39:29.178Z,96813.84
2022-10-01T12:41:42.089Z,96810.16
2022-10-01T12:44:03.802Z,96820.72
2022-10-01T12:46:15.205Z,96822.72
2022-10-01T12:48:24.737Z,96822.38
2022-10-01T12:50:39.870Z,96835.16
2022-10-01T12:52:49.715Z,96822.47
2022-10-01T12:55:07.399Z,96827.38
2022-10-01T12:57:33.087Z,96822.22
2022-10-01T12:59:52.565Z,96826.63
2022-10-01T13:02:07.879Z,96835.28
2022-10-01T13:04:27.214Z,96835.81
2022-10-01T13:06:41.645Z,96842.72
2022-10-01T13:08:55.278Z,96847.03
2022-10-01T13:11:12.337Z,96841.13
2022-10-01T13:13:21.478Z,96850.00
2022-10-01T13:15:28.002Z,96852.81
2022-10-01T13:17:42.227Z,96852.81
2022-10-01T13:19:52.239Z,96863.84
2022-10-01T13:22:08.600Z,96857.84
2022-10-01T13:24:19.915Z,96865.63
2022-10-01T13:26:30.624Z,96856.09
2022-10-01T13:28:48.713Z,96857.94
2022-10-01T13:31:00.418Z,96858.38
2022-10-01T13:33:05.050Z,96857.84
2022-10-01T13:35:25.403Z,96872.78
2022-10-01T13:37:39.960Z,96864.09
2022-10-01T13:39:43.621Z,96874.22
2022-10-01T13:41:48.026Z,96858.84
2022-10-01T13:43:56.725Z,96868.84
2022-10-01T13:46:08.929Z,96874.31
2022-10-01T13:48:20.302Z,96876.94
2022-10-01T13:50:25.573Z,96872.47
2022-10-01T13:52:28.586Z,96871.72
2022-10-01T13:54:37.509Z,96871.19
2022-10-01T13:56:40.094Z,96874.44
2022-10-01T13:58:45.049Z,96879.66
2022-10-01T14:00:51.179Z,96880.56
2022-10-01T14:03:03.934Z,96875.03
2022-10-01T14:05:28.317Z,96878.53
2022-10-01T14:07:36.631Z,96873.75
2022-10-01T14:09:45.737Z,96896.75
2022-10-01T14:12:09.547Z,96893.44
2022-10-01T14:14:37.827Z,96883.66
2022-10-01T14:16:42.956Z,96886.75
2022-10-01T14:18:49.704Z,96885.19
2022-10-01T14:21:00.916Z,96892.97
2022-10-01T14:23:11.886Z,96881.28
2022-10-01T14:25:24.229Z,96911.72
2022-10-01T14:27:34.152Z,96889.38
2022-10-01T14:29:49.009Z,96894.41
2022-10-01T14:32:02.701Z,96892.00
2022-10-01T14:34:21.800Z,96899.94
2022-10-01T14:36:32.283Z,96886.91
2022-10-01T14:38:35.484Z,96888.84
2022-10-01T14:40:40.673Z,96890.59
2022-10-01T14:42:43.383Z,96895.59
2022-10-01T14:44:48.331Z,96898.78
2022-10-01T14:46:51.826Z,96900.06
2022-10-01T14:48:58.400Z,96892.47
2022-10-01T14:51:02.475Z,96890.66
2022-10-01T14:53:06.232Z,96893.66
2022-10-01T14:55:13.966Z,96900.22
2022-10-01T14:57:25.341Z,96893.47
2022-10-01T14:59:35.672Z,96886.78
2022-10-01T15:01:39.638Z,96889.72
2022-10-01T15:03:44.947Z,96898.59
2022-10-01T15:05:49.957Z,96902.63
2022-10-01T15:07:53.039Z,96890.09
2022-10-01T15:10:06.672Z,96890.75
2022-10-01T15:12:09.414Z,96889.94
2022-10-01T15:14:17.578Z,96898.28
2022-10-01T15:16:23.072Z,96892.97
2022-10-01T15:18:27.794Z,96899.75
2022-10-01T15:20:30.451Z,96891.53
2022-10-01T15:22:34.298Z,96899.22
2022-10-01T15:24:41.282Z,96899.38
2022-10-01T15:26:47.233Z,96889.50
2022-10-01T15:28:50.445Z,96895.28
2022-10-01T15:30:53.197Z,96894.41
2022-10-01T15:32:56.185Z,96904.63
2022-10-01T15:35:02.886Z,96908.19
2022-10-01T15:37:05.929Z,96906.19
2022-10-01T15:39:25.397Z,96901.25
2022-10-01T15:41:32.754Z,96885.69
2022-10-01T15:43:37.086Z,96909.19
2022-10-01T15:45:39.936Z,96915.72
2022-10-01T15:47:51.647Z,96911.00
2022-10-01T15:50:19.054Z,96912.28
2022-10-01T15:52:40.302Z,96928.91
2022-10-01T15:54:45.742Z,96919.00
2022-10-01T15:56:49.116Z,96939.81
2022-10-01T15:58:55.793Z,96932.09
2022-10-01T16:01:04.291Z,96927.13
2022-10-01T16:03:07.085Z,96927.72
2022-10-01T16:05:18.920Z,96931.38
2022-10-01T16:07:22.559Z,96937.19
2022-10-01T16:09:27.655Z,96937.94
2022-10-01T16:11:32.843Z,96937.88
2022-10-01T16:13:39.218Z,96937.31
2022-10-01T16:15:41.972Z,96933.16
2022-10-01T16:17:54.784Z,96939.22
2022-10-01T16:19:59.262Z,96941.75
2022-10-01T16:22:20.746Z,96959.16
2022-10-01T16:24:28.571Z,96960.53
2022-10-01T16:26:41.679Z,96960.50
2022-10-01T16:28:44.302Z,96962.16
2022-10-01T16:30:51.623Z,96965.59
2022-10-01T16:32:54.857Z,96967.38
2022-10-01T16:35:28.806Z,96973.94
2022-10-01T16:37:32.724Z,96977.69
2022-10-01T16:39:35.344Z,96977.09
2022-10-01T16:41:37.988Z,96991.88
2022-10-01T16:43:40.673Z,96976.31
2022-10-01T16:45:43.861Z,96976.31
2022-10-01T16:47:47.326Z,96977.78
2022-10-01T16:49:52.575Z,96982.66
2022-10-01T16:51:56.064Z,96979.81
2022-10-01T16:54:01.843Z,96984.88
2022-10-01T16:56:04.447Z,96990.88
2022-10-01T16:58:07.502Z,96987.31
2022-10-01T17:00:13.997Z,96981.38
2022-10-01T17:02:16.761Z,96986.97
2022-10-01T17:04:19.673Z,96997.28
2022-10-01T17:06:22.291Z,97011.25
2022-10-01T17:08:24.870Z,97016.81
2022-10-01T17:10:30.953Z,97011.47
2022-10-01T17:12:33.659Z,97013.34
2022-10-01T17:14:36.237Z,97016.53
2022-10-01T17:16:39.110Z,97027.22
2022-10-01T17:18:43.671Z,97025.09
2022-10-01T17:20:46.979Z,97030.66
2022-10-01T17:22:49.993Z,97029.47
2022-10-01T17:24:52.565Z,97030.41
2022-10-01T17:26:56.498Z,97015.91
2022-10-01T17:28:59.105Z,97016.38
2022-10-01T17:31:04.141Z,97020.78
2022-10-01T17:33:07.129Z,97019.59
2022-10-01T17:35:10.698Z,97014.19
2022-10-01T17:37:13.511Z,97019.94
2022-10-01T17:39:18.944Z,97015.53
2022-10-01T17:41:21.576Z,97019.59
2022-10-01T17:43:25.668Z,97025.25
2022-10-01T17:45:28.408Z,97041.16
2022-10-01T17:47:31.038Z,97037.25
2022-10-01T17:49:33.624Z,97046.47
2022-10-01T17:51:36.711Z,97056.09
2022-10-01T17:53:42.602Z,97061.69
2022-10-01T17:55:46.697Z,97063.38
2022-10-01T17:57:49.239Z,97064.13
2022-10-01T17:59:53.239Z,97062.03
2022-10-01T18:01:55.841Z,97072.59
2022-10-01T18:04:00.300Z,97070.97
2022-10-01T18:06:03.968Z,97072.41
2022-10-01T18:08:06.507Z,97081.13
2022-10-01T18:10:11.301Z,97073.06
2022-10-01T18:12:14.869Z,97080.75
2022-10-01T18:14:18.807Z,97078.94
2022-10-01T18:16:23.695Z,97093.81
2022-10-01T18:19:51.229Z,97102.34
2022-10-01T18:20:48.953Z,97108.25
2022-10-01T18:22:52.103Z,97105.06
2022-10-01T18:24:54.654Z,97116.56
2022-10-01T18:26:57.513Z,97117.50
2022-10-01T18:29:00.178Z,97108.97
2022-10-01T18:31:18.721Z,97122.66
2022-10-01T18:33:23.070Z,97125.38
2022-10-01T18:35:31.931Z,97127.91
2022-10-01T18:37:40.033Z,97117.50
2022-10-01T18:39:48.268Z,97129.97
2022-10-01T18:41:51.314Z,97123.59
2022-10-01T18:43:53.924Z,97125.28
2022-10-01T18:46:08.623Z,97129.09
2022-10-01T18:48:30.689Z,97133.44
2022-10-01T18:50:40.057Z,97146.09
2022-10-01T18:52:58.635Z,97137.78
2022-10-01T18:55:21.266Z,97149.16
2022-10-01T18:57:41.973Z,97148.94
2022-10-01T18:59:59.474Z,97155.91
2022-10-01T19:02:18.818Z,97168.13
2022-10-01T19:04:50.729Z,97172.75
2022-10-01T19:07:07.988Z,97178.44
2022-10-01T19:09:24.035Z,97186.72
2022-10-01T19:11:34.711Z,97194.78
2022-10-01T19:13:47.907Z,97192.31
2022-10-01T19:16:06.828Z,97203.66
2022-10-01T19:18:33.894Z,97201.41
2022-10-01T19:20:49.874Z,97210.13
2022-10-01T19:23:06.649Z,97221.44
2022-10-01T19:25:20.433Z,97233.28
2022-10-01T19:27:34.891Z,97247.75
2022-10-01T19:29:54.997Z,97262.84
2022-10-01T19:32:02.033Z,97270.94
2022-10-01T19:34:10.790Z,97273.72
2022-10-01T19:36:25.848Z,97261.69
2022-10-01T19:38:37.386Z,97255.75
2022-10-01T19:40:44.045Z,97264.22
2022-10-01T19:42:51.570Z,97265.28
2022-10-01T19:44:59.516Z,97275.31
2022-10-01T19:47:15.656Z,97271.16
2022-10-01T19:49:25.342Z,97283.84
2022-10-01T19:51:34.340Z,97284.56
2022-10-01T19:53:38.324Z,97285.41
2022-10-01T19:55:40.923Z,97293.53
2022-10-01T19:57:44.995Z,97296.38
2022-10-01T19:59:48.199Z,97300.97
2022-10-01T20:01:55.179Z,97304.00
2022-10-01T20:04:02.665Z,97315.16
2022-10-01T20:06:08.693Z,97311.16
2022-10-01T20:08:19.551Z,97308.78
2022-10-01T20:10:30.452Z,97309.16
2022-10-01T20:12:42.120Z,97314.53
2022-10-01T20:15:12.613Z,97319.91
2022-10-01T20:17:22.721Z,97316.59
2022-10-01T20:19:32.716Z,97316.81
2022-10-01T20:21:45.398Z,97316.25
2022-10-01T20:23:57.031Z,97312.16
2022-10-01T20:26:10.415Z,97318.47
2022-10-01T20:28:19.911Z,97330.41
2022-10-01T20:30:23.961Z,97340.19
2022-10-01T20:32:31.867Z,97332.25
2022-10-01T20:34:44.779Z,97328.16
2022-10-01T20:36:56.146Z,97337.00
2022-10-01T20:39:05.583Z,97337.69
2022-10-01T20:41:14.755Z,97344.22
2022-10-01T20:43:23.192Z,97346.31
2022-10-01T20:45:28.690Z,97346.38
2022-10-01T20:47:37.818Z,97353.53
2022-10-01T20:49:47.070Z,97352.81
2022-10-01T20:51:58.199Z,97353.84
2022-10-01T20:54:10.481Z,97357.44
2022-10-01T20:56:16.543Z,97357.50
2022-10-01T20:58:23.959Z,97352.25
2022-10-01T21:00:28.592Z,97360.19
2022-10-01T21:02:39.473Z,97355.09
2022-10-01T21:04:49.754Z,97366.06
2022-10-01T21:06:57.410Z,97361.88
2022-10-01T21:09:04.485Z,97363.59
2022-10-01T21:11:14.366Z,97364.38
2022-10-01T21:13:25.536Z,97362.88
2022-10-01T21:15:39.648Z,97370.31
2022-10-01T21:17:50.817Z,97374.84
2022-10-01T21:20:12.852Z,97377.59
2022-10-01T21:22:22.424Z,97377.38
2022-10-01T21:24:44.076Z,97376.59
2022-10-01T21:26:57.123Z,97375.41
2022-10-01T21:29:19.223Z,97377.88
2022-10-01T21:31:39.529Z,97385.69
2022-10-01T21:33:53.301Z,97383.25
2022-10-01T21:36:02.959Z,97390.25
2022-10-01T21:38:12.548Z,97393.00
2022-10-01T21:40:25.337Z,97389.69
2022-10-01T21:42:39.736Z,97388.91
2022-10-01T21:45:04.068Z,97388.97
2022-10-01T21:47:13.003Z,97382.97
2022-10-01T21:49:27.067Z,97390.88
2022-10-01T21:51:45.134Z,97396.19
2022-10-01T21:54:10.925Z,97397.94
2022-10-01T21:56:29.578Z,97406.50
2022-10-01T21:58:49.667Z,97408.22
2022-10-01T22:01:00.272Z,97403.84
2022-10-01T22:03:12.866Z,97405.75
2022-10-01T22:05:24.630Z,97399.81
2022-10-01T22:07:35.306Z,97405.13
2022-10-01T22:09:44.370Z,97403.34
2022-10-01T22:11:52.744Z,97408.16
2022-10-01T22:13:59.346Z,97407.66
2022-10-01T22:16:07.584Z,97419.91
2022-10-01T22:18:19.306Z,97416.31
2022-10-01T22:20:25.178Z,97427.75
2022-10-01T22:22:32.371Z,97436.53
2022-10-01T22:24:39.923Z,97431.41
2022-10-01T22:26:48.031Z,97435.75
2022-10-01T22:28:55.313Z,97446.22
2022-10-01T22:31:03.072Z,97447.09
2022-10-01T22:33:11.860Z,97444.50
2022-10-01T22:35:19.361Z,97448.91
2022-10-01T22:37:27.117Z,97446.09
2022-10-01T22:39:35.200Z,97447.16
2022-10-01T22:41:43.005Z,97450.28
2022-10-01T22:43:45.799Z,97441.06
2022-10-01T22:46:04.810Z,97444.63
2022-10-01T22:48:25.063Z,97451.75
2022-10-01T22:50:42.297Z,97466.75
2022-10-01T22:52:58.030Z,97467.63
2022-10-01T22:55:11.545Z,97466.47
2022-10-01T22:57:26.993Z,97481.41
2022-10-01T22:59:40.999Z,97490.19
2022-10-01T23:02:00.212Z,97496.28
2022-10-01T23:04:35.186Z,97495.09
2022-10-01T23:06:42.559Z,97486.28
2022-10-01T23:08:49.483Z,97490.13
2022-10-01T23:11:02.476Z,97483.03
2022-10-01T23:13:16.337Z,97481.47
2022-10-01T23:15:30.957Z,97488.81
2022-10-01T23:17:42.083Z,97489.34
2022-10-01T23:19:58.963Z,97494.66
2022-10-01T23:22:06.624Z,97489.56
2022-10-01T23:24:20.383Z,97497.88
2022-10-01T23:26:37.442Z,97487.72
2022-10-01T23:28:51.068Z,97498.38
2022-10-01T23:31:04.480Z,97491.53
2022-10-01T23:33:21.799Z,97486.00
2022-10-01T23:35:31.605Z,97479.22
2022-10-01T23:37:52.628Z,97485.09
2022-10-01T23:40:00.050Z,97491.03
2022-10-01T23:42:13.771Z,97501.00
2022-10-01T23:44:23.835Z,97502.88
2022-10-01T23:46:30.694Z,97512.72
2022-10-01T23:48:40.664Z,97514.69
2022-10-01T23:50:49.018Z,97528.88
2022-10-01T23:53:04.243Z,97524.72
2022-10-01T23:55:33.156Z,97526.56
2022-10-01T23:57:39.751Z,97538.69
2022-10-01T23:59:45.977Z,97548.38
